sensor_id;sensor_type;location;lat;lon;timestamp;P1;durP1;ratioP1;P2;durP2;ratioP2
65279;SDS011;51878;55.748;48.742;2024-03-25T00:03:37;19.75;;;12.85;;
65279;SDS011;51878;55.748;48.742;2024-03-25T00:08:38;20.23;;;13.05;;
65279;SDS011;51878;55.748;48.742;2024-03-25T00:13:39;27.48;;;14.52;;
65279;SDS011;51878;55.748;48.742;2024-03-25T00:18:40;31.13;;;16.55;;
65279;SDS011;51878;55.748;48.742;2024-03-25T00:23:41;28.80;;;15.18;;
65279;SDS011;51878;55.748;48.742;2024-03-25T00:28:43;24.55;;;13.82;;
65279;SDS011;51878;55.748;48.742;2024-03-25T00:33:44;33.47;;;16.70;;
65279;SDS011;51878;55.748;48.742;2024-03-25T00:38:45;25.17;;;15.05;;
65279;SDS011;51878;55.748;48.742;2024-03-25T00:43:46;28.83;;;15.65;;
65279;SDS011;51878;55.748;48.742;2024-03-25T00:48:47;28.33;;;15.15;;
65279;SDS011;51878;55.748;48.742;2024-03-25T00:53:49;32.28;;;14.35;;
65279;SDS011;51878;55.748;48.742;2024-03-25T00:58:50;37.33;;;16.83;;
65279;SDS011;51878;55.748;48.742;2024-03-25T01:03:51;36.38;;;16.35;;
65279;SDS011;51878;55.748;48.742;2024-03-25T01:08:52;26.40;;;13.63;;
65279;SDS011;51878;55.748;48.742;2024-03-25T01:13:53;28.10;;;14.80;;
65279;SDS011;51878;55.748;48.742;2024-03-25T01:18:54;29.90;;;15.38;;
65279;SDS011;51878;55.748;48.742;2024-03-25T01:23:55;26.83;;;15.13;;
65279;SDS011;51878;55.748;48.742;2024-03-25T01:28:57;21.20;;;12.63;;
65279;SDS011;51878;55.748;48.742;2024-03-25T01:33:58;32.58;;;17.27;;
65279;SDS011;51878;55.748;48.742;2024-03-25T01:38:59;25.10;;;12.40;;
65279;SDS011;51878;55.748;48.742;2024-03-25T01:44:00;29.35;;;14.48;;
65279;SDS011;51878;55.748;48.742;2024-03-25T01:49:03;34.72;;;16.40;;
65279;SDS011;51878;55.748;48.742;2024-03-25T01:54:04;25.80;;;15.70;;
65279;SDS011;51878;55.748;48.742;2024-03-25T01:59:07;26.13;;;14.68;;
65279;SDS011;51878;55.748;48.742;2024-03-25T02:04:09;28.77;;;16.45;;
65279;SDS011;51878;55.748;48.742;2024-03-25T02:09:10;27.45;;;16.85;;
65279;SDS011;51878;55.748;48.742;2024-03-25T02:14:13;23.73;;;14.88;;
65279;SDS011;51878;55.748;48.742;2024-03-25T02:19:14;27.48;;;15.45;;
65279;SDS011;51878;55.748;48.742;2024-03-25T02:24:16;26.23;;;14.50;;
65279;SDS011;51878;55.748;48.742;2024-03-25T02:29:21;29.30;;;13.32;;
65279;SDS011;51878;55.748;48.742;2024-03-25T02:34:22;25.77;;;13.85;;
65279;SDS011;51878;55.748;48.742;2024-03-25T02:39:23;31.77;;;15.35;;
65279;SDS011;51878;55.748;48.742;2024-03-25T02:44:25;23.02;;;15.20;;
65279;SDS011;51878;55.748;48.742;2024-03-25T02:49:27;24.17;;;12.32;;
65279;SDS011;51878;55.748;48.742;2024-03-25T02:54:28;27.33;;;16.88;;
65279;SDS011;51878;55.748;48.742;2024-03-25T02:59:29;24.65;;;15.82;;
65279;SDS011;51878;55.748;48.742;2024-03-25T03:04:30;26.27;;;15.35;;
65279;SDS011;51878;55.748;48.742;2024-03-25T03:09:31;20.35;;;12.57;;
65279;SDS011;51878;55.748;48.742;2024-03-25T03:14:33;24.45;;;14.75;;
65279;SDS011;51878;55.748;48.742;2024-03-25T03:19:34;19.58;;;12.77;;
65279;SDS011;51878;55.748;48.742;2024-03-25T03:24:35;25.67;;;13.45;;
65279;SDS011;51878;55.748;48.742;2024-03-25T03:29:36;31.45;;;14.68;;
65279;SDS011;51878;55.748;48.742;2024-03-25T03:34:37;26.27;;;14.63;;
65279;SDS011;51878;55.748;48.742;2024-03-25T03:39:38;29.83;;;17.10;;
65279;SDS011;51878;55.748;48.742;2024-03-25T03:44:39;25.65;;;14.98;;
65279;SDS011;51878;55.748;48.742;2024-03-25T03:49:40;25.85;;;14.68;;
65279;SDS011;51878;55.748;48.742;2024-03-25T03:54:41;25.73;;;14.43;;
65279;SDS011;51878;55.748;48.742;2024-03-25T03:59:42;21.83;;;12.30;;
65279;SDS011;51878;55.748;48.742;2024-03-25T04:04:44;18.42;;;13.55;;
65279;SDS011;51878;55.748;48.742;2024-03-25T04:09:45;22.17;;;13.25;;
65279;SDS011;51878;55.748;48.742;2024-03-25T04:14:46;22.73;;;14.57;;
65279;SDS011;51878;55.748;48.742;2024-03-25T04:19:50;22.15;;;14.55;;
65279;SDS011;51878;55.748;48.742;2024-03-25T04:24:51;21.75;;;13.52;;
65279;SDS011;51878;55.748;48.742;2024-03-25T04:29:53;20.45;;;12.27;;
65279;SDS011;51878;55.748;48.742;2024-03-25T04:34:54;21.55;;;12.77;;
65279;SDS011;51878;55.748;48.742;2024-03-25T04:39:55;22.73;;;12.50;;
65279;SDS011;51878;55.748;48.742;2024-03-25T04:44:56;20.33;;;12.93;;
65279;SDS011;51878;55.748;48.742;2024-03-25T04:49:58;17.35;;;11.27;;
65279;SDS011;51878;55.748;48.742;2024-03-25T04:54:59;19.92;;;12.10;;
65279;SDS011;51878;55.748;48.742;2024-03-25T05:00:00;22.23;;;13.60;;
65279;SDS011;51878;55.748;48.742;2024-03-25T05:05:01;22.75;;;14.55;;
65279;SDS011;51878;55.748;48.742;2024-03-25T05:10:03;20.50;;;12.57;;
65279;SDS011;51878;55.748;48.742;2024-03-25T05:15:05;22.67;;;14.20;;
65279;SDS011;51878;55.748;48.742;2024-03-25T05:20:06;22.13;;;13.65;;
65279;SDS011;51878;55.748;48.742;2024-03-25T05:25:08;18.48;;;11.75;;
65279;SDS011;51878;55.748;48.742;2024-03-25T05:30:12;16.25;;;10.98;;
65279;SDS011;51878;55.748;48.742;2024-03-25T05:35:16;21.73;;;13.15;;
65279;SDS011;51878;55.748;48.742;2024-03-25T05:40:19;19.25;;;12.63;;
65279;SDS011;51878;55.748;48.742;2024-03-25T05:45:20;19.42;;;12.30;;
65279;SDS011;51878;55.748;48.742;2024-03-25T05:50:22;20.42;;;12.30;;
65279;SDS011;51878;55.748;48.742;2024-03-25T05:55:23;21.95;;;12.70;;
65279;SDS011;51878;55.748;48.742;2024-03-25T06:00:24;17.50;;;12.05;;
65279;SDS011;51878;55.748;48.742;2024-03-25T06:05:26;19.63;;;10.65;;
65279;SDS011;51878;55.748;48.742;2024-03-25T06:10:27;18.52;;;12.05;;
65279;SDS011;51878;55.748;48.742;2024-03-25T06:15:29;20.77;;;12.18;;
65279;SDS011;51878;55.748;48.742;2024-03-25T06:20:30;19.30;;;12.65;;
65279;SDS011;51878;55.748;48.742;2024-03-25T06:25:31;18.92;;;12.60;;
65279;SDS011;51878;55.748;48.742;2024-03-25T06:30:34;20.05;;;11.68;;
65279;SDS011;51878;55.748;48.742;2024-03-25T06:35:53;17.27;;;11.57;;
65279;SDS011;51878;55.748;48.742;2024-03-25T06:40:54;16.00;;;10.75;;
65279;SDS011;51878;55.748;48.742;2024-03-25T06:45:55;20.55;;;12.10;;
65279;SDS011;51878;55.748;48.742;2024-03-25T06:50:57;16.42;;;10.63;;
65279;SDS011;51878;55.748;48.742;2024-03-25T06:55:59;23.30;;;12.07;;
65279;SDS011;51878;55.748;48.742;2024-03-25T07:01:05;24.15;;;12.20;;
65279;SDS011;51878;55.748;48.742;2024-03-25T07:06:08;21.05;;;12.35;;
65279;SDS011;51878;55.748;48.742;2024-03-25T07:11:09;21.77;;;12.13;;
65279;SDS011;51878;55.748;48.742;2024-03-25T07:16:10;16.65;;;11.55;;
65279;SDS011;51878;55.748;48.742;2024-03-25T07:21:11;19.85;;;12.70;;
65279;SDS011;51878;55.748;48.742;2024-03-25T07:26:13;18.35;;;12.73;;
65279;SDS011;51878;55.748;48.742;2024-03-25T07:31:14;18.73;;;12.57;;
65279;SDS011;51878;55.748;48.742;2024-03-25T07:36:15;22.52;;;13.40;;
65279;SDS011;51878;55.748;48.742;2024-03-25T07:41:16;16.25;;;11.50;;
65279;SDS011;51878;55.748;48.742;2024-03-25T07:46:18;24.60;;;12.75;;
65279;SDS011;51878;55.748;48.742;2024-03-25T07:51:19;22.20;;;12.52;;
65279;SDS011;51878;55.748;48.742;2024-03-25T07:56:21;21.27;;;13.55;;
65279;SDS011;51878;55.748;48.742;2024-03-25T08:01:22;18.70;;;11.65;;
65279;SDS011;51878;55.748;48.742;2024-03-25T08:06:23;20.92;;;12.77;;
65279;SDS011;51878;55.748;48.742;2024-03-25T08:11:24;20.50;;;11.18;;
65279;SDS011;51878;55.748;48.742;2024-03-25T08:16:25;26.05;;;14.55;;
65279;SDS011;51878;55.748;48.742;2024-03-25T08:21:27;24.60;;;12.77;;
65279;SDS011;51878;55.748;48.742;2024-03-25T08:26:28;23.40;;;12.48;;
65279;SDS011;51878;55.748;48.742;2024-03-25T08:31:29;19.95;;;13.05;;
65279;SDS011;51878;55.748;48.742;2024-03-25T08:36:30;20.15;;;12.50;;
65279;SDS011;51878;55.748;48.742;2024-03-25T08:41:31;20.63;;;13.27;;
65279;SDS011;51878;55.748;48.742;2024-03-25T08:46:33;18.83;;;12.05;;
65279;SDS011;51878;55.748;48.742;2024-03-25T08:51:36;19.80;;;12.75;;
65279;SDS011;51878;55.748;48.742;2024-03-25T08:56:37;20.15;;;11.63;;
65279;SDS011;51878;55.748;48.742;2024-03-25T09:01:38;22.27;;;11.57;;
65279;SDS011;51878;55.748;48.742;2024-03-25T09:06:39;18.50;;;11.27;;
65279;SDS011;51878;55.748;48.742;2024-03-25T09:11:40;18.48;;;11.98;;
65279;SDS011;51878;55.748;48.742;2024-03-25T09:16:41;21.15;;;11.77;;
65279;SDS011;51878;55.748;48.742;2024-03-25T09:21:42;16.33;;;10.18;;
65279;SDS011;51878;55.748;48.742;2024-03-25T09:26:43;20.27;;;13.00;;
65279;SDS011;51878;55.748;48.742;2024-03-25T09:31:44;17.55;;;11.65;;
65279;SDS011;51878;55.748;48.742;2024-03-25T09:36:46;25.08;;;12.32;;
65279;SDS011;51878;55.748;48.742;2024-03-25T09:41:47;19.17;;;13.43;;
65279;SDS011;51878;55.748;48.742;2024-03-25T09:46:48;21.02;;;13.18;;
65279;SDS011;51878;55.748;48.742;2024-03-25T09:51:50;18.60;;;12.70;;
65279;SDS011;51878;55.748;48.742;2024-03-25T09:56:51;18.73;;;11.95;;
65279;SDS011;51878;55.748;48.742;2024-03-25T10:01:54;18.70;;;11.80;;
65279;SDS011;51878;55.748;48.742;2024-03-25T10:06:55;21.20;;;12.32;;
65279;SDS011;51878;55.748;48.742;2024-03-25T10:11:56;19.98;;;13.68;;
65279;SDS011;51878;55.748;48.742;2024-03-25T10:16:57;18.75;;;12.75;;
65279;SDS011;51878;55.748;48.742;2024-03-25T10:22:08;23.75;;;12.35;;
65279;SDS011;51878;55.748;48.742;2024-03-25T10:27:10;20.65;;;12.30;;
65279;SDS011;51878;55.748;48.742;2024-03-25T10:32:21;18.00;;;11.25;;
65279;SDS011;51878;55.748;48.742;2024-03-25T10:37:25;17.77;;;11.95;;
65279;SDS011;51878;55.748;48.742;2024-03-25T10:42:28;18.88;;;11.88;;
65279;SDS011;51878;55.748;48.742;2024-03-25T10:47:30;18.70;;;11.27;;
65279;SDS011;51878;55.748;48.742;2024-03-25T10:52:32;18.35;;;13.02;;
65279;SDS011;51878;55.748;48.742;2024-03-25T10:57:34;18.58;;;11.68;;
65279;SDS011;51878;55.748;48.742;2024-03-25T11:02:36;17.90;;;11.68;;
65279;SDS011;51878;55.748;48.742;2024-03-25T11:07:37;16.75;;;10.77;;
65279;SDS011;51878;55.748;48.742;2024-03-25T11:12:41;22.13;;;12.45;;
65279;SDS011;51878;55.748;48.742;2024-03-25T11:17:49;19.50;;;12.35;;
65279;SDS011;51878;55.748;48.742;2024-03-25T11:22:52;14.10;;;11.55;;
65279;SDS011;51878;55.748;48.742;2024-03-25T11:27:53;18.13;;;12.80;;
65279;SDS011;51878;55.748;48.742;2024-03-25T11:32:55;17.50;;;12.18;;
65279;SDS011;51878;55.748;48.742;2024-03-25T11:37:56;16.98;;;12.98;;
65279;SDS011;51878;55.748;48.742;2024-03-25T11:42:58;18.67;;;12.50;;
65279;SDS011;51878;55.748;48.742;2024-03-25T11:47:59;16.45;;;12.23;;
65279;SDS011;51878;55.748;48.742;2024-03-25T11:53:03;17.38;;;12.88;;
65279;SDS011;51878;55.748;48.742;2024-03-25T11:58:05;16.10;;;12.43;;
65279;SDS011;51878;55.748;48.742;2024-03-25T12:03:07;16.38;;;11.82;;
65279;SDS011;51878;55.748;48.742;2024-03-25T12:08:09;16.83;;;12.57;;
65279;SDS011;51878;55.748;48.742;2024-03-25T12:13:11;15.20;;;11.98;;
65279;SDS011;51878;55.748;48.742;2024-03-25T12:18:13;16.30;;;12.32;;
65279;SDS011;51878;55.748;48.742;2024-03-25T12:23:14;16.45;;;12.07;;
65279;SDS011;51878;55.748;48.742;2024-03-25T12:28:16;17.38;;;12.40;;
65279;SDS011;51878;55.748;48.742;2024-03-25T12:33:17;18.13;;;12.20;;
65279;SDS011;51878;55.748;48.742;2024-03-25T12:38:22;19.23;;;12.52;;
65279;SDS011;51878;55.748;48.742;2024-03-25T12:43:27;15.10;;;11.52;;
65279;SDS011;51878;55.748;48.742;2024-03-25T12:48:28;21.25;;;11.75;;
65279;SDS011;51878;55.748;48.742;2024-03-25T12:53:30;17.33;;;11.70;;
65279;SDS011;51878;55.748;48.742;2024-03-25T12:58:31;17.17;;;11.23;;
65279;SDS011;51878;55.748;48.742;2024-03-25T13:03:32;18.83;;;11.45;;
65279;SDS011;51878;55.748;48.742;2024-03-25T13:08:33;17.33;;;11.65;;
65279;SDS011;51878;55.748;48.742;2024-03-25T13:13:34;17.67;;;11.20;;
65279;SDS011;51878;55.748;48.742;2024-03-25T13:18:35;16.67;;;11.27;;
65279;SDS011;51878;55.748;48.742;2024-03-25T13:23:36;17.70;;;10.90;;
65279;SDS011;51878;55.748;48.742;2024-03-25T13:28:37;15.60;;;10.48;;
65279;SDS011;51878;55.748;48.742;2024-03-25T13:33:39;16.27;;;11.02;;
65279;SDS011;51878;55.748;48.742;2024-03-25T13:38:41;14.55;;;10.63;;
65279;SDS011;51878;55.748;48.742;2024-03-25T13:43:42;15.32;;;10.50;;
65279;SDS011;51878;55.748;48.742;2024-03-25T13:48:44;13.63;;;9.90;;
65279;SDS011;51878;55.748;48.742;2024-03-25T13:53:47;16.33;;;11.32;;
65279;SDS011;51878;55.748;48.742;2024-03-25T13:58:49;16.80;;;10.73;;
65279;SDS011;51878;55.748;48.742;2024-03-25T14:03:50;14.32;;;10.63;;
65279;SDS011;51878;55.748;48.742;2024-03-25T14:08:51;17.80;;;11.38;;
65279;SDS011;51878;55.748;48.742;2024-03-25T14:13:52;17.42;;;10.98;;
65279;SDS011;51878;55.748;48.742;2024-03-25T14:18:53;14.48;;;9.52;;
65279;SDS011;51878;55.748;48.742;2024-03-25T14:23:54;14.75;;;9.95;;
65279;SDS011;51878;55.748;48.742;2024-03-25T14:28:55;17.13;;;10.77;;
65279;SDS011;51878;55.748;48.742;2024-03-25T14:33:56;17.08;;;10.30;;
65279;SDS011;51878;55.748;48.742;2024-03-25T14:38:58;18.30;;;10.02;;
65279;SDS011;51878;55.748;48.742;2024-03-25T14:43:59;15.98;;;10.23;;
65279;SDS011;51878;55.748;48.742;2024-03-25T14:49:00;15.43;;;9.80;;
65279;SDS011;51878;55.748;48.742;2024-03-25T14:54:02;16.70;;;10.60;;
65279;SDS011;51878;55.748;48.742;2024-03-25T14:59:03;16.38;;;10.65;;
65279;SDS011;51878;55.748;48.742;2024-03-25T15:04:04;13.60;;;10.02;;
65279;SDS011;51878;55.748;48.742;2024-03-25T15:09:05;14.18;;;9.35;;
65279;SDS011;51878;55.748;48.742;2024-03-25T15:14:07;20.67;;;10.90;;
65279;SDS011;51878;55.748;48.742;2024-03-25T15:19:08;16.23;;;10.00;;
65279;SDS011;51878;55.748;48.742;2024-03-25T15:24:09;18.85;;;10.15;;
65279;SDS011;51878;55.748;48.742;2024-03-25T15:29:10;16.88;;;10.77;;
65279;SDS011;51878;55.748;48.742;2024-03-25T15:34:11;21.42;;;11.50;;
65279;SDS011;51878;55.748;48.742;2024-03-25T15:39:13;19.52;;;10.82;;
65279;SDS011;51878;55.748;48.742;2024-03-25T15:44:14;17.60;;;9.18;;
65279;SDS011;51878;55.748;48.742;2024-03-25T15:49:16;17.25;;;9.52;;
65279;SDS011;51878;55.748;48.742;2024-03-25T15:54:17;16.98;;;9.10;;
65279;SDS011;51878;55.748;48.742;2024-03-25T15:59:18;19.90;;;10.75;;
65279;SDS011;51878;55.748;48.742;2024-03-25T16:04:19;14.10;;;9.88;;
65279;SDS011;51878;55.748;48.742;2024-03-25T16:09:20;16.45;;;9.23;;
65279;SDS011;51878;55.748;48.742;2024-03-25T16:14:22;15.30;;;8.50;;
65279;SDS011;51878;55.748;48.742;2024-03-25T16:19:23;13.38;;;9.15;;
65279;SDS011;51878;55.748;48.742;2024-03-25T16:24:24;18.75;;;9.05;;
65279;SDS011;51878;55.748;48.742;2024-03-25T16:29:25;16.83;;;9.88;;
65279;SDS011;51878;55.748;48.742;2024-03-25T16:34:26;14.50;;;9.40;;
65279;SDS011;51878;55.748;48.742;2024-03-25T16:39:27;15.60;;;10.02;;
65279;SDS011;51878;55.748;48.742;2024-03-25T16:44:29;14.57;;;8.25;;
65279;SDS011;51878;55.748;48.742;2024-03-25T16:49:30;18.67;;;11.20;;
65279;SDS011;51878;55.748;48.742;2024-03-25T16:54:31;16.10;;;10.65;;
65279;SDS011;51878;55.748;48.742;2024-03-25T16:59:33;16.63;;;8.73;;
65279;SDS011;51878;55.748;48.742;2024-03-25T17:04:34;15.13;;;8.43;;
65279;SDS011;51878;55.748;48.742;2024-03-25T17:09:35;18.10;;;10.25;;
65279;SDS011;51878;55.748;48.742;2024-03-25T17:14:36;18.08;;;9.45;;
65279;SDS011;51878;55.748;48.742;2024-03-25T17:19:37;16.42;;;10.82;;
65279;SDS011;51878;55.748;48.742;2024-03-25T17:24:40;15.95;;;9.85;;
65279;SDS011;51878;55.748;48.742;2024-03-25T17:29:42;25.45;;;9.88;;
65279;SDS011;51878;55.748;48.742;2024-03-25T17:34:43;18.25;;;10.75;;
65279;SDS011;51878;55.748;48.742;2024-03-25T17:39:44;16.08;;;9.68;;
65279;SDS011;51878;55.748;48.742;2024-03-25T17:44:48;18.00;;;10.90;;
65279;SDS011;51878;55.748;48.742;2024-03-25T17:49:50;14.02;;;9.07;;
65279;SDS011;51878;55.748;48.742;2024-03-25T17:54:51;19.17;;;11.13;;
65279;SDS011;51878;55.748;48.742;2024-03-25T17:59:52;15.77;;;10.07;;
65279;SDS011;51878;55.748;48.742;2024-03-25T18:04:53;18.70;;;9.82;;
65279;SDS011;51878;55.748;48.742;2024-03-25T18:09:54;19.75;;;10.75;;
65279;SDS011;51878;55.748;48.742;2024-03-25T18:14:57;17.02;;;9.45;;
65279;SDS011;51878;55.748;48.742;2024-03-25T18:19:58;15.50;;;9.73;;
65279;SDS011;51878;55.748;48.742;2024-03-25T18:24:59;18.23;;;10.85;;
65279;SDS011;51878;55.748;48.742;2024-03-25T18:30:00;16.63;;;10.40;;
65279;SDS011;51878;55.748;48.742;2024-03-25T18:35:04;14.80;;;9.43;;
65279;SDS011;51878;55.748;48.742;2024-03-25T18:40:05;20.63;;;10.88;;
65279;SDS011;51878;55.748;48.742;2024-03-25T18:45:13;16.17;;;10.43;;
65279;SDS011;51878;55.748;48.742;2024-03-25T18:50:14;23.90;;;11.00;;
65279;SDS011;51878;55.748;48.742;2024-03-25T18:55:16;15.52;;;10.00;;
65279;SDS011;51878;55.748;48.742;2024-03-25T19:00:18;19.38;;;10.90;;
65279;SDS011;51878;55.748;48.742;2024-03-25T19:05:19;16.25;;;9.32;;
65279;SDS011;51878;55.748;48.742;2024-03-25T19:10:20;17.50;;;10.68;;
65279;SDS011;51878;55.748;48.742;2024-03-25T19:15:21;16.15;;;10.38;;
65279;SDS011;51878;55.748;48.742;2024-03-25T19:20:22;24.90;;;11.55;;
65279;SDS011;51878;55.748;48.742;2024-03-25T19:25:23;18.58;;;11.15;;
65279;SDS011;51878;55.748;48.742;2024-03-25T19:30:28;16.65;;;9.93;;
65279;SDS011;51878;55.748;48.742;2024-03-25T19:35:29;18.70;;;11.10;;
65279;SDS011;51878;55.748;48.742;2024-03-25T19:40:30;15.15;;;10.27;;
65279;SDS011;51878;55.748;48.742;2024-03-25T19:45:31;20.55;;;11.85;;
65279;SDS011;51878;55.748;48.742;2024-03-25T19:50:32;21.45;;;11.27;;
65279;SDS011;51878;55.748;48.742;2024-03-25T19:55:33;19.40;;;11.68;;
65279;SDS011;51878;55.748;48.742;2024-03-25T20:00:34;19.00;;;11.70;;
65279;SDS011;51878;55.748;48.742;2024-03-25T20:05:37;20.20;;;10.98;;
65279;SDS011;51878;55.748;48.742;2024-03-25T20:10:38;18.05;;;11.05;;
65279;SDS011;51878;55.748;48.742;2024-03-25T20:15:39;18.05;;;11.48;;
65279;SDS011;51878;55.748;48.742;2024-03-25T20:20:43;17.50;;;10.38;;
65279;SDS011;51878;55.748;48.742;2024-03-25T20:25:44;17.00;;;10.93;;
65279;SDS011;51878;55.748;48.742;2024-03-25T20:30:46;18.63;;;11.27;;
65279;SDS011;51878;55.748;48.742;2024-03-25T20:35:47;15.90;;;11.00;;
65279;SDS011;51878;55.748;48.742;2024-03-25T20:40:48;25.40;;;11.05;;
65279;SDS011;51878;55.748;48.742;2024-03-25T20:45:49;18.63;;;11.20;;
65279;SDS011;51878;55.748;48.742;2024-03-25T20:50:51;19.67;;;11.45;;
65279;SDS011;51878;55.748;48.742;2024-03-25T20:55:52;15.90;;;10.50;;
65279;SDS011;51878;55.748;48.742;2024-03-25T21:00:53;16.77;;;11.25;;
65279;SDS011;51878;55.748;48.742;2024-03-25T21:05:54;20.10;;;10.75;;
65279;SDS011;51878;55.748;48.742;2024-03-25T21:10:56;15.73;;;10.73;;
65279;SDS011;51878;55.748;48.742;2024-03-25T21:15:58;18.02;;;11.40;;
65279;SDS011;51878;55.748;48.742;2024-03-25T21:21:00;21.92;;;12.98;;
65279;SDS011;51878;55.748;48.742;2024-03-25T21:26:01;20.20;;;11.75;;
65279;SDS011;51878;55.748;48.742;2024-03-25T21:31:04;18.98;;;11.40;;
65279;SDS011;51878;55.748;48.742;2024-03-25T21:36:05;18.40;;;11.63;;
65279;SDS011;51878;55.748;48.742;2024-03-25T21:41:06;18.38;;;11.40;;
65279;SDS011;51878;55.748;48.742;2024-03-25T21:46:07;21.70;;;11.60;;
65279;SDS011;51878;55.748;48.742;2024-03-25T21:51:08;19.25;;;11.95;;
65279;SDS011;51878;55.748;48.742;2024-03-25T21:56:10;23.98;;;12.85;;
65279;SDS011;51878;55.748;48.742;2024-03-25T22:01:13;19.17;;;12.15;;
65279;SDS011;51878;55.748;48.742;2024-03-25T22:06:15;22.58;;;11.75;;
65279;SDS011;51878;55.748;48.742;2024-03-25T22:11:16;25.60;;;13.30;;
65279;SDS011;51878;55.748;48.742;2024-03-25T22:16:17;19.10;;;12.60;;
65279;SDS011;51878;55.748;48.742;2024-03-25T22:21:18;22.75;;;12.00;;
65279;SDS011;51878;55.748;48.742;2024-03-25T22:26:19;19.17;;;12.68;;
65279;SDS011;51878;55.748;48.742;2024-03-25T22:31:20;19.08;;;11.82;;
65279;SDS011;51878;55.748;48.742;2024-03-25T22:36:21;20.92;;;12.65;;
65279;SDS011;51878;55.748;48.742;2024-03-25T22:41:23;28.48;;;12.27;;
65279;SDS011;51878;55.748;48.742;2024-03-25T22:46:24;20.85;;;11.73;;
65279;SDS011;51878;55.748;48.742;2024-03-25T22:51:25;21.95;;;11.65;;
65279;SDS011;51878;55.748;48.742;2024-03-25T22:56:26;21.55;;;11.93;;
65279;SDS011;51878;55.748;48.742;2024-03-25T23:01:27;20.02;;;12.70;;
65279;SDS011;51878;55.748;48.742;2024-03-25T23:06:28;19.45;;;11.32;;
65279;SDS011;51878;55.748;48.742;2024-03-25T23:11:29;26.90;;;12.13;;
65279;SDS011;51878;55.748;48.742;2024-03-25T23:16:30;26.08;;;13.50;;
65279;SDS011;51878;55.748;48.742;2024-03-25T23:21:31;21.00;;;13.20;;
65279;SDS011;51878;55.748;48.742;2024-03-25T23:26:33;20.50;;;12.80;;
65279;SDS011;51878;55.748;48.742;2024-03-25T23:31:34;21.60;;;11.90;;
65279;SDS011;51878;55.748;48.742;2024-03-25T23:36:35;19.70;;;10.65;;
65279;SDS011;51878;55.748;48.742;2024-03-25T23:41:36;18.63;;;11.10;;
65279;SDS011;51878;55.748;48.742;2024-03-25T23:46:37;27.92;;;13.20;;
65279;SDS011;51878;55.748;48.742;2024-03-25T23:51:39;20.65;;;11.30;;
65279;SDS011;51878;55.748;48.742;2024-03-25T23:56:41;23.60;;;11.85;;
